createdAt,value
2022-09-13T00:00:04.226Z,6.37
2022-09-13T00:02:52.749Z,6.30
2022-09-13T00:05:41.317Z,6.60
2022-09-13T00:08:29.887Z,6.73
2022-09-13T00:11:20.040Z,9.27
2022-09-13T00:14:10.425Z,6.70
2022-09-13T00:16:58.858Z,7.00
2022-09-13T00:19:47.991Z,6.60
2022-09-13T00:22:36.711Z,6.77
2022-09-13T00:25:25.122Z,6.07
2022-09-13T00:28:13.568Z,6.63
2022-09-13T00:31:04.593Z,6.57
2022-09-13T00:33:53.346Z,6.03
2022-09-13T00:36:41.753Z,6.63
2022-09-13T00:39:30.231Z,7.00
2022-09-13T00:42:19.144Z,7.13
2022-09-13T00:45:16.748Z,6.90
2022-09-13T00:48:09.264Z,5.87
2022-09-13T00:50:57.845Z,8.37
2022-09-13T00:53:51.392Z,6.90
2022-09-13T00:56:42.616Z,6.70
2022-09-13T00:59:33.841Z,5.90
2022-09-13T01:02:22.776Z,7.17
2022-09-13T01:05:13.047Z,6.43
2022-09-13T01:08:02.316Z,6.20
2022-09-13T01:10:51.982Z,7.10
2022-09-13T01:13:40.827Z,6.23
2022-09-13T01:16:29.332Z,6.87
2022-09-13T01:19:18.340Z,16.07
2022-09-13T01:22:44.357Z,6.30
2022-09-13T01:25:52.073Z,6.50
2022-09-13T01:28:55.660Z,6.67
2022-09-13T01:31:49.739Z,7.27
2022-09-13T01:34:46.854Z,6.70
2022-09-13T01:37:44.156Z,7.73
2022-09-13T01:40:49.304Z,6.63
2022-09-13T01:43:45.427Z,7.93
2022-09-13T01:46:39.237Z,8.13
2022-09-13T01:49:33.461Z,9.33
2022-09-13T01:52:25.822Z,7.20
2022-09-13T01:55:23.192Z,9.87
2022-09-13T01:58:20.016Z,7.03
2022-09-13T02:01:13.548Z,8.63
2022-09-13T02:04:06.280Z,9.17
2022-09-13T02:07:02.293Z,9.37
2022-09-13T02:09:52.331Z,6.90
2022-09-13T02:12:43.509Z,8.47
2022-09-13T02:15:35.683Z,8.60
2022-09-13T02:18:28.020Z,6.70
2022-09-13T02:21:19.039Z,7.23
2022-09-13T02:24:11.181Z,6.93
2022-09-13T02:27:03.570Z,7.27
2022-09-13T02:29:54.203Z,7.80
2022-09-13T02:32:44.260Z,6.40
2022-09-13T02:35:35.187Z,6.93
2022-09-13T02:38:28.023Z,6.67
2022-09-13T02:41:22.158Z,6.83
2022-09-13T02:44:14.186Z,9.50
2022-09-13T02:47:12.064Z,7.30
2022-09-13T02:50:09.185Z,6.40
2022-09-13T02:53:04.149Z,7.07
2022-09-13T02:55:57.985Z,7.40
2022-09-13T02:58:53.396Z,8.70
2022-09-13T03:01:42.762Z,6.60
2022-09-13T03:04:31.406Z,6.20
2022-09-13T03:07:19.904Z,7.20
2022-09-13T03:10:11.227Z,7.70
2022-09-13T03:13:12.278Z,6.70
2022-09-13T03:16:07.950Z,7.43
2022-09-13T03:19:09.775Z,6.77
2022-09-13T03:22:16.098Z,6.87
2022-09-13T03:25:08.762Z,7.40
2022-09-13T03:28:04.019Z,6.50
2022-09-13T03:30:56.730Z,5.93
2022-09-13T03:33:52.176Z,9.40
2022-09-13T03:36:45.547Z,7.23
2022-09-13T03:39:37.912Z,6.97
2022-09-13T03:42:31.218Z,6.33
2022-09-13T03:45:23.376Z,5.67
2022-09-13T03:48:13.123Z,5.40
2022-09-13T03:51:03.034Z,6.83
2022-09-13T03:53:56.268Z,6.60
2022-09-13T03:56:44.975Z,6.27
2022-09-13T03:59:33.381Z,7.07
2022-09-13T04:02:23.295Z,7.20
2022-09-13T04:05:11.820Z,5.40
2022-09-13T04:08:01.992Z,5.60
2022-09-13T04:10:52.005Z,5.47
2022-09-13T04:13:41.277Z,6.03
2022-09-13T04:16:29.839Z,6.30
2022-09-13T04:19:18.296Z,5.90
2022-09-13T04:22:06.752Z,5.87
2022-09-13T04:25:01.474Z,5.90
2022-09-13T04:27:55.059Z,6.47
2022-09-13T04:30:45.000Z,6.40
2022-09-13T04:33:33.440Z,5.80
2022-09-13T04:36:22.891Z,5.70
2022-09-13T04:39:11.578Z,5.53
2022-09-13T04:42:02.351Z,5.93
2022-09-13T04:44:50.807Z,6.60
2022-09-13T04:47:39.249Z,6.23
2022-09-13T04:50:27.981Z,6.10
2022-09-13T04:53:16.414Z,7.50
2022-09-13T04:56:05.838Z,6.77
2022-09-13T04:58:56.567Z,5.90
2022-09-13T05:01:45.180Z,7.17
2022-09-13T05:04:34.007Z,6.07
2022-09-13T05:07:22.536Z,6.30
2022-09-13T05:10:12.763Z,6.70
2022-09-13T05:13:03.849Z,6.80
2022-09-13T05:15:56.853Z,6.33
2022-09-13T05:18:45.529Z,6.17
2022-09-13T05:21:34.064Z,6.27
2022-09-13T05:24:22.562Z,6.47
2022-09-13T05:27:11.976Z,7.00
2022-09-13T05:30:00.390Z,6.73
2022-09-13T05:32:50.180Z,5.67
2022-09-13T05:35:41.657Z,6.40
2022-09-13T05:38:30.438Z,5.27
2022-09-13T05:41:18.888Z,5.50
2022-09-13T05:44:12.872Z,5.43
2022-09-13T05:47:02.111Z,5.30
2022-09-13T05:50:09.242Z,7.30
2022-09-13T05:52:58.245Z,5.73
2022-09-13T05:55:47.192Z,5.67
2022-09-13T05:58:35.994Z,5.07
2022-09-13T06:01:26.042Z,5.43
2022-09-13T06:04:14.699Z,5.80
2022-09-13T06:07:04.635Z,5.70
2022-09-13T06:09:53.397Z,5.33
2022-09-13T06:12:41.936Z,5.70
2022-09-13T06:15:30.392Z,5.90
2022-09-13T06:18:19.244Z,6.07
2022-09-13T06:21:09.548Z,5.90
2022-09-13T06:23:59.393Z,10.57
2022-09-13T06:26:47.846Z,5.90
2022-09-13T06:29:36.279Z,5.73
2022-09-13T06:32:24.754Z,5.57
2022-09-13T06:35:13.151Z,4.87
2022-09-13T06:38:01.569Z,5.70
2022-09-13T06:41:00.760Z,4.90
2022-09-13T06:43:49.318Z,4.97
2022-09-13T06:46:37.836Z,6.60
2022-09-13T06:49:26.416Z,4.87
2022-09-13T06:52:14.896Z,4.43
2022-09-13T06:55:03.489Z,3.83
2022-09-13T06:57:53.765Z,5.53
2022-09-13T07:00:42.253Z,3.70
2022-09-13T07:03:30.734Z,3.90
2022-09-13T07:06:22.584Z,3.60
2022-09-13T07:09:14.025Z,3.37
2022-09-13T07:12:02.903Z,4.70
2022-09-13T07:14:52.740Z,4.53
2022-09-13T07:17:41.180Z,4.40
2022-09-13T07:20:29.971Z,5.80
2022-09-13T07:23:18.422Z,4.13
2022-09-13T07:26:08.235Z,4.10
2022-09-13T07:28:58.296Z,6.90
2022-09-13T07:31:49.667Z,6.90
2022-09-13T07:34:38.144Z,3.50
2022-09-13T07:37:26.591Z,6.33
2022-09-13T07:40:15.392Z,4.60
2022-09-13T07:43:03.911Z,3.40
2022-09-13T07:45:58.828Z,3.47
2022-09-13T07:48:50.504Z,3.57
2022-09-13T07:51:40.294Z,3.80
2022-09-13T07:54:28.722Z,3.40
2022-09-13T07:57:17.185Z,3.47
2022-09-13T08:00:07.065Z,3.67
2022-09-13T08:02:55.501Z,3.53
2022-09-13T08:05:45.362Z,4.50
2022-09-13T08:08:34.471Z,3.17
2022-09-13T08:11:24.152Z,3.30
2022-09-13T08:14:14.130Z,3.83
2022-09-13T08:17:02.579Z,4.00
2022-09-13T08:19:52.020Z,3.50
2022-09-13T08:22:41.906Z,3.93
2022-09-13T08:25:31.595Z,3.57
2022-09-13T08:28:26.869Z,4.40
2022-09-13T08:31:19.847Z,3.70
2022-09-13T08:34:08.925Z,5.60
2022-09-13T08:36:57.394Z,3.10
2022-09-13T08:39:47.341Z,3.70
2022-09-13T08:42:48.105Z,3.23
2022-09-13T08:45:36.671Z,3.20
2022-09-13T08:48:29.263Z,3.40
2022-09-13T08:51:30.708Z,3.67
2022-09-13T08:54:20.208Z,4.20
2022-09-13T08:57:14.371Z,4.40
2022-09-13T09:00:11.337Z,4.00
2022-09-13T09:03:18.175Z,3.40
2022-09-13T09:06:14.278Z,3.97
2022-09-13T09:09:05.955Z,4.60
2022-09-13T09:12:00.807Z,3.90
2022-09-13T09:14:58.668Z,3.17
2022-09-13T09:17:53.008Z,5.20
2022-09-13T09:20:43.080Z,3.60
2022-09-13T09:23:35.679Z,3.27
2022-09-13T09:26:26.424Z,3.90
2022-09-13T09:29:24.248Z,3.33
2022-09-13T09:32:24.469Z,3.63
2022-09-13T09:35:20.142Z,3.90
2022-09-13T09:38:24.447Z,5.50
2022-09-13T09:41:18.005Z,3.53
2022-09-13T09:44:17.659Z,2.63
2022-09-13T09:47:11.927Z,2.90
2022-09-13T09:50:11.863Z,3.50
2022-09-13T09:53:04.022Z,4.33
2022-09-13T09:55:57.235Z,3.63
2022-09-13T09:58:47.441Z,2.97
2022-09-13T10:01:39.979Z,5.63
2022-09-13T10:04:29.259Z,3.53
2022-09-13T10:07:27.195Z,2.70
2022-09-13T10:10:23.133Z,2.43
2022-09-13T10:13:16.925Z,2.57
2022-09-13T10:16:07.631Z,4.73
2022-09-13T10:18:56.275Z,2.80
2022-09-13T10:21:44.871Z,3.07
2022-09-13T10:24:34.728Z,4.23
2022-09-13T10:27:27.188Z,5.63
2022-09-13T10:30:31.573Z,2.70
2022-09-13T10:33:27.079Z,3.80
2022-09-13T10:36:35.265Z,2.90
2022-09-13T10:39:28.026Z,2.70
2022-09-13T10:42:22.327Z,2.50
2022-09-13T10:45:21.958Z,4.90
2022-09-13T10:48:14.012Z,2.87
2022-09-13T10:51:05.840Z,2.70
2022-09-13T10:54:10.382Z,3.77
2022-09-13T10:59:53.673Z,3.20
2022-09-13T11:03:04.241Z,2.43
2022-09-13T11:05:58.301Z,3.10
2022-09-13T11:08:54.449Z,2.40
2022-09-13T11:11:46.805Z,2.37
2022-09-13T11:14:48.943Z,2.77
2022-09-13T11:17:58.164Z,2.03
2022-09-13T11:20:51.095Z,2.47
2022-09-13T11:24:12.387Z,1.80
2022-09-13T11:27:04.634Z,3.30
2022-09-13T11:30:05.086Z,3.07
2022-09-13T11:33:04.449Z,3.20
2022-09-13T11:36:12.155Z,2.53
2022-09-13T11:39:08.293Z,3.83
2022-09-13T11:42:05.206Z,2.20
2022-09-13T11:45:21.820Z,2.43
2022-09-13T11:48:32.484Z,2.00
2022-09-13T11:51:28.034Z,2.37
2022-09-13T11:54:30.662Z,4.73
2022-09-13T11:57:22.519Z,4.60
2022-09-13T12:00:20.994Z,3.37
2022-09-13T12:03:17.165Z,4.70
2022-09-13T12:06:09.086Z,2.37
2022-09-13T12:09:00.915Z,2.73
2022-09-13T12:11:53.992Z,2.37
2022-09-13T12:14:46.904Z,2.70
2022-09-13T12:17:41.100Z,2.10
2022-09-13T12:20:34.011Z,4.53
2022-09-13T12:23:26.302Z,1.90
2022-09-13T12:26:19.892Z,2.40
2022-09-13T12:29:15.578Z,2.10
2022-09-13T12:32:06.188Z,2.70
2022-09-13T12:34:59.651Z,2.47
2022-09-13T12:38:14.019Z,2.40
2022-09-13T12:41:27.055Z,2.10
2022-09-13T12:44:39.634Z,3.80
2022-09-13T12:47:51.047Z,5.20
2022-09-13T12:51:11.811Z,1.60
2022-09-13T12:54:17.851Z,2.13
2022-09-13T12:57:18.246Z,1.97
2022-09-13T13:00:20.324Z,2.10
2022-09-13T13:03:17.273Z,1.90
2022-09-13T13:06:11.533Z,3.03
2022-09-13T13:09:03.443Z,1.73
2022-09-13T13:11:54.520Z,2.60
2022-09-13T13:14:53.347Z,3.90
2022-09-13T13:17:46.326Z,2.53
2022-09-13T13:20:48.784Z,2.20
2022-09-13T13:23:39.126Z,3.33
2022-09-13T13:26:47.854Z,2.37
2022-09-13T13:29:37.709Z,2.80
2022-09-13T13:32:26.174Z,2.20
2022-09-13T13:35:31.022Z,2.37
2022-09-13T13:38:52.936Z,2.60
2022-09-13T13:41:46.920Z,2.60
2022-09-13T13:45:08.970Z,2.00
2022-09-13T13:48:11.163Z,1.90
2022-09-13T13:51:19.556Z,2.90
2022-09-13T13:54:36.439Z,2.17
2022-09-13T13:57:27.527Z,1.97
2022-09-13T14:00:18.055Z,1.77
2022-09-13T14:03:16.994Z,2.20
2022-09-13T14:06:12.460Z,2.07
2022-09-13T14:09:09.471Z,2.73
2022-09-13T14:12:19.105Z,2.13
2022-09-13T14:15:18.966Z,2.50
2022-09-13T14:18:39.497Z,3.83
2022-09-13T14:21:29.453Z,2.00
2022-09-13T14:24:19.820Z,2.10
2022-09-13T14:27:12.418Z,3.03
2022-09-13T14:30:03.390Z,10.97
2022-09-13T14:32:54.299Z,2.67
2022-09-13T14:35:44.167Z,3.90
2022-09-13T14:38:35.472Z,2.80
2022-09-13T14:41:31.435Z,2.40
2022-09-13T14:44:28.447Z,2.33
2022-09-13T14:47:22.459Z,3.33
2022-09-13T14:50:14.886Z,2.73
2022-09-13T14:53:06.401Z,2.60
2022-09-13T14:55:57.548Z,4.23
2022-09-13T14:58:48.535Z,4.17
2022-09-13T15:01:37.128Z,2.00
2022-09-13T15:04:26.026Z,2.30
2022-09-13T15:07:22.727Z,3.37
2022-09-13T15:10:22.986Z,2.40
2022-09-13T15:13:12.164Z,1.90
2022-09-13T15:16:01.306Z,1.90
2022-09-13T15:18:49.855Z,1.93
2022-09-13T15:21:38.347Z,6.07
2022-09-13T15:24:32.471Z,2.67
2022-09-13T15:27:25.406Z,2.67
2022-09-13T15:30:22.241Z,2.33
2022-09-13T15:33:23.694Z,1.93
2022-09-13T15:36:17.502Z,3.00
2022-09-13T15:39:17.941Z,2.30
2022-09-13T15:42:06.584Z,2.00
2022-09-13T15:44:56.892Z,2.07
2022-09-13T15:47:49.608Z,2.23
2022-09-13T15:50:38.643Z,1.63
2022-09-13T15:53:27.159Z,1.60
2022-09-13T15:56:18.934Z,3.50
2022-09-13T15:59:07.454Z,1.60
2022-09-13T16:01:57.438Z,2.67
2022-09-13T16:04:45.968Z,5.27
2022-09-13T16:07:34.502Z,2.10
2022-09-13T16:10:24.129Z,2.90
2022-09-13T16:13:12.596Z,3.00
2022-09-13T16:16:01.213Z,3.37
2022-09-13T16:18:51.116Z,1.90
2022-09-13T16:21:39.603Z,2.43
2022-09-13T16:24:28.433Z,2.13
2022-09-13T16:27:18.383Z,1.70
2022-09-13T16:30:08.297Z,1.53
2022-09-13T16:32:56.861Z,1.50
2022-09-13T16:35:47.463Z,12.63
2022-09-13T16:38:35.962Z,15.30
2022-09-13T16:41:24.756Z,7.73
2022-09-13T16:44:14.166Z,3.13
2022-09-13T16:47:02.749Z,2.47
2022-09-13T16:49:51.262Z,1.90
2022-09-13T16:52:41.295Z,2.57
2022-09-13T16:55:10.319Z,5.20
2022-09-13T16:57:38.580Z,4.80
2022-09-13T17:00:10.714Z,2.43
2022-09-13T17:02:39.411Z,2.90
2022-09-13T17:05:08.477Z,3.20
2022-09-13T17:07:37.457Z,3.30
2022-09-13T17:10:16.100Z,4.03
2022-09-13T17:12:44.506Z,2.10
2022-09-13T17:15:31.332Z,2.43
2022-09-13T17:18:19.900Z,2.20
2022-09-13T17:21:08.404Z,2.50
2022-09-13T17:23:56.934Z,3.00
2022-09-13T17:26:47.260Z,1.90
2022-09-13T17:29:36.156Z,1.93
2022-09-13T17:32:24.600Z,1.93
2022-09-13T17:35:14.066Z,2.70
2022-09-13T17:38:03.319Z,4.33
2022-09-13T17:40:59.956Z,2.87
2022-09-13T17:43:49.972Z,3.60
2022-09-13T17:46:38.610Z,2.53
2022-09-13T17:49:27.134Z,3.20
2022-09-13T17:52:15.753Z,3.90
2022-09-13T18:00:42.723Z,3.37
2022-09-13T18:03:31.729Z,3.63
2022-09-13T18:06:20.378Z,5.60
2022-09-13T18:09:09.866Z,6.53
2022-09-13T18:11:58.451Z,2.40
2022-09-13T18:14:47.102Z,6.00
2022-09-13T18:17:37.013Z,3.20
2022-09-13T18:20:25.782Z,2.83
2022-09-13T18:23:14.320Z,2.43
2022-09-13T18:26:08.742Z,2.50
2022-09-13T18:29:01.757Z,2.57
2022-09-13T18:31:50.282Z,4.40
2022-09-13T18:34:42.132Z,4.00
2022-09-13T18:37:33.223Z,3.20
2022-09-13T18:40:22.993Z,3.20
2022-09-13T18:43:11.622Z,2.93
2022-09-13T18:46:04.578Z,3.00
2022-09-13T18:48:55.148Z,3.07
2022-09-13T18:51:46.298Z,2.87
2022-09-13T18:54:35.485Z,2.97
2022-09-13T18:57:24.035Z,2.70
2022-09-13T19:00:13.242Z,4.10
2022-09-13T19:03:12.250Z,3.83
2022-09-13T19:06:12.154Z,3.30
2022-09-13T19:09:02.817Z,3.93
2022-09-13T19:11:52.600Z,4.33
2022-09-13T19:14:41.129Z,2.40
2022-09-13T19:17:29.653Z,2.73
2022-09-13T19:20:19.294Z,3.63
2022-09-13T19:23:07.883Z,3.50
2022-09-13T19:26:03.810Z,3.10
2022-09-13T19:28:54.911Z,2.60
2022-09-13T19:31:44.785Z,3.90
2022-09-13T19:34:33.316Z,4.30
2022-09-13T19:37:21.818Z,5.57
2022-09-13T19:40:11.232Z,3.83
2022-09-13T19:43:01.441Z,4.37
2022-09-13T19:45:56.231Z,3.43
2022-09-13T19:48:46.712Z,5.43
2022-09-13T19:51:37.128Z,6.13
2022-09-13T19:54:25.658Z,4.63
2022-09-13T19:57:14.211Z,5.97
2022-09-13T20:00:05.364Z,5.90
2022-09-13T20:02:53.807Z,4.70
2022-09-13T20:05:42.341Z,4.17
2022-09-13T20:08:31.471Z,4.30
2022-09-13T20:11:20.820Z,7.10
2022-09-13T20:14:09.426Z,5.00
2022-09-13T20:16:59.603Z,4.17
2022-09-13T20:19:50.354Z,5.47
2022-09-13T20:22:39.089Z,4.80
2022-09-13T20:25:27.535Z,4.10
2022-09-13T20:28:16.841Z,4.07
2022-09-13T20:31:05.597Z,4.87
2022-09-13T20:33:59.332Z,5.83
2022-09-13T20:36:48.034Z,4.63
2022-09-13T20:39:36.526Z,7.40
2022-09-13T20:42:24.984Z,7.23
2022-09-13T20:45:13.692Z,7.20
2022-09-13T20:48:02.251Z,5.20
2022-09-13T20:50:58.471Z,5.70
2022-09-13T20:53:46.960Z,4.27
2022-09-13T20:56:36.117Z,5.00
2022-09-13T20:59:24.603Z,4.17
2022-09-13T21:02:13.198Z,3.83
2022-09-13T21:05:01.806Z,5.90
2022-09-13T21:08:09.205Z,3.70
2022-09-13T21:10:58.475Z,4.40
2022-09-13T21:13:48.869Z,4.83
2022-09-13T21:16:39.707Z,4.50
2022-09-13T21:19:29.852Z,9.67
2022-09-13T21:22:18.314Z,5.17
2022-09-13T21:25:09.291Z,4.70
2022-09-13T21:27:57.887Z,7.70
2022-09-13T21:30:56.644Z,4.73
2022-09-13T21:33:45.717Z,6.23
2022-09-13T21:36:35.562Z,5.30
2022-09-13T21:39:24.294Z,4.00
2022-09-13T21:42:15.862Z,4.47
2022-09-13T21:45:05.820Z,5.90
2022-09-13T21:47:54.630Z,3.60
2022-09-13T21:50:43.085Z,4.97
2022-09-13T21:53:33.995Z,8.13
2022-09-13T21:56:23.902Z,4.33
2022-09-13T21:59:15.766Z,4.10
2022-09-13T22:02:04.327Z,3.90
2022-09-13T22:04:53.034Z,6.43
2022-09-13T22:07:41.661Z,4.07
2022-09-13T22:10:30.154Z,5.20
2022-09-13T22:13:18.599Z,4.17
2022-09-13T22:16:10.153Z,4.17
2022-09-13T22:19:01.789Z,7.43
2022-09-13T22:21:55.038Z,3.97
2022-09-13T22:24:46.015Z,6.37
2022-09-13T22:27:37.113Z,3.77
2022-09-13T22:30:25.554Z,3.40
2022-09-13T22:33:15.390Z,4.67
2022-09-13T22:36:06.124Z,4.70
2022-09-13T22:38:55.216Z,7.43
2022-09-13T22:41:43.869Z,5.07
2022-09-13T22:44:32.331Z,5.03
2022-09-13T22:47:20.941Z,4.03
2022-09-13T22:50:10.998Z,4.10
2022-09-13T22:52:59.491Z,4.30
2022-09-13T22:55:48.496Z,4.30
2022-09-13T22:58:37.017Z,8.10
2022-09-13T23:01:26.607Z,3.63
2022-09-13T23:04:15.318Z,7.40
2022-09-13T23:07:05.197Z,7.77
2022-09-13T23:09:53.620Z,3.63
2022-09-13T23:12:42.019Z,3.80
2022-09-13T23:15:30.496Z,4.90
2022-09-13T23:18:18.895Z,4.43
2022-09-13T23:21:07.622Z,6.23
2022-09-13T23:23:57.560Z,4.73
2022-09-13T23:26:46.577Z,4.80
2022-09-13T23:29:35.629Z,5.10
2022-09-13T23:32:24.761Z,6.43
2022-09-13T23:35:13.209Z,4.80
2022-09-13T23:38:01.658Z,4.20
2022-09-13T23:40:51.485Z,7.27
2022-09-13T23:43:39.913Z,4.40
2022-09-13T23:46:28.968Z,5.20
2022-09-13T23:49:17.610Z,6.37
2022-09-13T23:52:06.162Z,4.27
2022-09-13T23:54:54.615Z,4.47
2022-09-13T23:57:44.404Z,7.23
